Terminal Aerodrome Forecast
Issued by NWS St Louis, MO

Home | Current Version | Previous Version | Text Only | Print | Product List | Glossary On
Versions: 1 2 3 4 5 6 7 8 9 10 11 12 13 14 15 16 17 18 19 20 21 22 23 24 25 26
000
FTUS43 KLSX 032000 AAB
TAFCOU
TAF AMD
KCOU 032045Z 0321/0418 24015KT P6SM OVC015
     FM032200 29012KT P6SM OVC015
     FM040300 34014KT P6SM OVC015
     FM041300 34014KT P6SM SCT015 OVC050=

USA.gov is the U.S. government's official web portal to all federal, state and local government web resources and services.